Tropical Cyclones
[Index]
Main Index Home Page Stock Weather Photos Extreme Storms Discussion Storm News and Storm Chasing Reports Tropical Cyclones / Hurricanes / Typhoons Weather Data and Links Wild Fires / Bushfires Weather Observation Techniques Weather Picture Catalogue Tornado Pictures and Reports Stock Video Footage and DVDs for sale
Season 1978-1979 Tropical Cyclone ROSA Track Map
Season 1978-1979 Summaries: [BoM-AU] [JTWC-AU] [JTWC-SIO] [JTWC-SPAC] [JTWC-SH]
<<- Previous TC | JTWC 1978-1979 Season | Next TC ->>

click for intensity scale information  Lat/long Grid: Show Hide

 Date Labels: Show Hide

Joint Typhoon Warning Centre Cyclone Data

Name: ROSA

17 Feb 1979 00:00 UTC to 28 Feb 1979 00:00 UTC

    date/time    lat    long     hPa   cat  kts
1979-02-17 00   14.5   140.1                  25          
1979-02-17 06   14.8   139.0                  25          
1979-02-17 12   15.0   138.2                  30          
1979-02-17 18   15.1   137.8                  30          
1979-02-18 00   15.3   137.5                  30          
1979-02-18 06   15.5   137.3                  30          
1979-02-18 12   15.8   137.2                  30          
1979-02-18 18   16.0   137.2                  30          
1979-02-19 00   16.1   137.5                  30          
1979-02-19 06   16.1   138.1                  30          
1979-02-19 12   16.0   138.8                  30          
1979-02-19 18   15.8   139.3                  30          
1979-02-20 00   15.7   139.8                  30          
1979-02-20 06   15.8   140.1                  30          
1979-02-20 12   16.0   140.1                  30          
1979-02-20 18   16.1   140.0                  35          
1979-02-21 00   16.3   139.8                  35          
1979-02-21 06   16.2   139.4            1     40          
1979-02-21 12   16.0   139.0            1     50          
1979-02-21 18   15.8   138.8            2     65          
1979-02-22 00   15.5   138.7            3     85          
1979-02-22 06   15.2   138.3            3     95          
1979-02-22 12   14.9   138.0            3     95          
1979-02-22 18   14.2   138.0            3     80          
1979-02-23 00   13.6   138.0            2     60          
1979-02-23 06   13.7   137.9            1     50          
1979-02-23 12   14.0   137.8            1     45          
1979-02-23 18   13.8   137.6            1     40          
1979-02-24 00   13.7   137.5                  35          
1979-02-24 06   14.1   137.6                  35          
1979-02-24 12   14.5   137.8                  35          
1979-02-24 18   14.8   137.8                              
1979-02-25 00   15.0   137.7                              
1979-02-25 06   15.0   137.4                              
1979-02-25 12   15.1   137.0                              
1979-02-25 18   15.1   136.8                              
1979-02-26 00   15.2   136.5                              
1979-02-26 06   15.4   136.0                              
1979-02-26 12   15.8   135.5                              
1979-02-26 18   15.9   135.0                              
1979-02-27 00   16.2   134.5                              
1979-02-27 06   16.8   133.2                              
1979-02-27 12   17.4   131.5                              
1979-02-27 18   18.0   130.2                              
1979-02-28 00   18.5   129.0                              
Winds are 1-min average.

Tropical cyclone tracks developed by Michael Bath using data from the Joint Typhoon Warning Centre Best Tracks and Google Maps.


[Australian Severe Weather index] [Copyright Notice] [Email Contacts] [Search This Site] [Privacy Policy]
Document: tropical_cyclone_rosa.htm Updated: 18 September 2016